Lake Shore, Minnesota
Current Conditions -  °F | °C
As of 3:53 PM on Thursday 27 Nov 2014 (Local Time) from KBRD Reporting Station
Clear Clear  
Wind Chill: -8°   Ceiling: Unl
Heat Index:   Visibility: 10mi
Dew Point: -6°   Wind: 9mph
Humidity: 58%   Direction: 190°S
Pressure: 30.35"   Gusts: NA
Location:  46.5121°N, 94.2802°W
Report Text: KBRD 272153Z AUTO 19008KT 10SM CLR M14/M21 A3035 RMK AO2 SLP314 T11441211
Loading
Personal Weather Stations






























Interactive Weather Map New forecast layout! Learn more

10-Day Weather Forecast

Advertisements
Track Severe Weather on mobile